Time;durP1;ratioP1;P1;durP2;ratioP2;P2;SDS_P1;SDS_P2;PMS_P1;PMS_P2;Temp;Humidity;BMP_temperature;BMP_pressure;BME280_temperature;BME280_humidity;BME280_pressure;Samples;Min_cycle;Max_cycle;Signal;HPM_P1;HPM_P2
2021/03/14 00:00:10;;;;;;;6.67;4.37;;;;;;;;;;2097448;28;20182;-66
2021/03/14 00:01:11;;;;;;;5.70;3.53;;;;;;;;;;2108940;28;20215;-60
2021/03/14 00:02:12;;;;;;;4.87;3.63;;;;;;;;;;2109161;28;20276;-66
2021/03/14 00:03:14;;;;;;;4.20;3.70;;;;;;;;;;2115070;28;20805;-65
2021/03/14 00:04:14;;;;;;;3.80;3.43;;;;;;;;;;2108625;28;20187;-66
2021/03/14 00:05:14;;;;;;;5.37;3.23;;;;;;;;;;2105881;28;20260;-66
2021/03/14 00:06:14;;;;;;;5.70;4.40;;;;;;;;;;2099692;28;20190;-65
2021/03/14 00:07:15;;;;;;;6.97;3.33;;;;;;;;;;2111421;28;20284;-64
2021/03/14 00:08:19;;;;;;;11.23;3.77;;;;;;;;;;2114079;28;20174;-66
2021/03/14 00:09:20;;;;;;;4.37;3.10;;;;;;;;;;2104687;28;20249;-66
2021/03/14 00:10:20;;;;;;;6.80;3.50;;;;;;;;;;2095736;28;20180;-68
2021/03/14 00:11:20;;;;;;;5.80;3.33;;;;;;;;;;2105596;28;20173;-65
2021/03/14 00:12:21;;;;;;;7.57;3.40;;;;;;;;;;2112822;28;20172;-66
2021/03/14 00:13:26;;;;;;;11.30;4.20;;;;;;;;;;2110408;28;20200;-66
2021/03/14 00:14:27;;;;;;;4.50;3.60;;;;;;;;;;2112921;28;20698;-64
2021/03/14 00:15:27;;;;;;;7.57;3.83;;;;;;;;;;2113335;28;20261;-64
2021/03/14 00:16:27;;;;;;;4.57;3.40;;;;;;;;;;2112059;28;20181;-63
2021/03/14 00:17:28;;;;;;;6.13;2.90;;;;;;;;;;2112389;28;20190;-64
2021/03/14 00:18:29;;;;;;;4.57;2.43;;;;;;;;;;2111983;28;20590;-64
2021/03/14 00:19:29;;;;;;;7.83;3.70;;;;;;;;;;2108506;28;20536;-66
2021/03/14 00:20:30;;;;;;;5.37;2.57;;;;;;;;;;2101945;28;20189;-65
2021/03/14 00:21:30;;;;;;;5.23;3.00;;;;;;;;;;2094125;28;20193;-64
2021/03/14 00:22:30;;;;;;;4.40;2.77;;;;;;;;;;2094395;28;20278;-65
2021/03/14 00:23:31;;;;;;;5.37;3.57;;;;;;;;;;2094323;28;20175;-64
2021/03/14 00:24:31;;;;;;;10.00;3.10;;;;;;;;;;2094570;28;20174;-65
2021/03/14 00:25:32;;;;;;;7.43;3.20;;;;;;;;;;2094231;28;20672;-62
2021/03/14 00:26:32;;;;;;;5.33;3.00;;;;;;;;;;2108786;28;20180;-65
2021/03/14 00:27:32;;;;;;;7.03;3.33;;;;;;;;;;2111245;28;20209;-65
2021/03/14 00:28:33;;;;;;;6.43;3.47;;;;;;;;;;2106905;28;20661;-62
2021/03/14 00:29:33;;;;;;;3.50;2.90;;;;;;;;;;2106627;28;20277;-65
2021/03/14 00:30:33;;;;;;;3.23;2.90;;;;;;;;;;2112579;28;20253;-65
2021/03/14 00:31:33;;;;;;;6.63;3.33;;;;;;;;;;2109955;28;20212;-65
2021/03/14 00:32:34;;;;;;;3.63;3.07;;;;;;;;;;2106805;28;20178;-66
2021/03/14 00:33:34;;;;;;;4.70;3.20;;;;;;;;;;2102388;28;20256;-63
2021/03/14 00:34:34;;;;;;;5.90;3.43;;;;;;;;;;2106971;28;20214;-65
2021/03/14 00:35:34;;;;;;;3.87;3.10;;;;;;;;;;2104152;28;20194;-66
2021/03/14 00:36:35;;;;;;;3.57;2.70;;;;;;;;;;2109093;28;20174;-65
2021/03/14 00:37:35;;;;;;;5.63;3.33;;;;;;;;;;2110266;28;20209;-66
2021/03/14 00:38:35;;;;;;;4.73;3.93;;;;;;;;;;2112912;28;20181;-65
2021/03/14 00:39:36;;;;;;;6.00;3.03;;;;;;;;;;2111063;28;20178;-64
2021/03/14 00:40:36;;;;;;;6.40;3.07;;;;;;;;;;2099402;28;20677;-67
2021/03/14 00:41:36;;;;;;;3.40;3.07;;;;;;;;;;2089600;28;20284;-65
2021/03/14 00:42:38;;;;;;;4.47;2.87;;;;;;;;;;2090137;28;20179;-66
2021/03/14 00:43:38;;;;;;;7.83;3.60;;;;;;;;;;2087647;28;20215;-65
2021/03/14 00:44:39;;;;;;;5.13;3.03;;;;;;;;;;2098932;28;20178;-65
2021/03/14 00:45:39;;;;;;;4.57;3.27;;;;;;;;;;2112261;28;20176;-65
2021/03/14 00:46:40;;;;;;;5.10;2.70;;;;;;;;;;2109393;28;20175;-65
2021/03/14 00:47:40;;;;;;;8.10;3.33;;;;;;;;;;2089730;28;20198;-66
2021/03/14 00:48:40;;;;;;;6.27;3.27;;;;;;;;;;2096052;28;20464;-66
2021/03/14 00:49:41;;;;;;;5.50;3.07;;;;;;;;;;2088209;28;20180;-65
2021/03/14 00:50:42;;;;;;;7.07;3.40;;;;;;;;;;2095192;28;20159;-64
2021/03/14 00:51:48;;;;;;;8.93;4.37;;;;;;;;;;2097344;28;20178;-65
2021/03/14 00:52:49;;;;;;;9.00;3.70;;;;;;;;;;2088311;28;20171;-65
2021/03/14 00:53:51;;;;;;;6.77;3.20;;;;;;;;;;2091379;28;20182;-65
2021/03/14 00:54:57;;;;;;;7.90;3.93;;;;;;;;;;2087393;28;20175;-65
2021/03/14 00:55:57;;;;;;;3.93;3.47;;;;;;;;;;2089814;28;20168;-65
2021/03/14 00:56:58;;;;;;;7.60;3.60;;;;;;;;;;2101605;28;20163;-65
2021/03/14 00:57:58;;;;;;;6.00;3.00;;;;;;;;;;2089931;28;20199;-65
2021/03/14 00:58:58;;;;;;;5.37;3.30;;;;;;;;;;2095558;28;20179;-65
2021/03/14 00:59:59;;;;;;;6.53;3.57;;;;;;;;;;2098596;28;20179;-65
2021/03/14 01:00:59;;;;;;;9.70;4.20;;;;;;;;;;2096032;28;20224;-65
2021/03/14 01:02:01;;;;;;;10.87;4.40;;;;;;;;;;2089920;28;20168;-65
2021/03/14 01:03:01;;;;;;;8.67;4.10;;;;;;;;;;2095665;28;20183;-65
2021/03/14 01:04:06;;;;;;;3.20;2.73;;;;;;;;;;2083529;28;20211;-66
2021/03/14 01:05:07;;;;;;;7.67;3.63;;;;;;;;;;2089607;28;20221;-65
2021/03/14 01:06:07;;;;;;;5.17;3.37;;;;;;;;;;2090951;28;20628;-65
2021/03/14 01:07:08;;;;;;;10.87;3.80;;;;;;;;;;2090149;28;20288;-63
2021/03/14 01:08:08;;;;;;;5.17;3.73;;;;;;;;;;2082786;28;20706;-65
2021/03/14 01:09:10;;;;;;;8.50;4.27;;;;;;;;;;2090271;28;20207;-65
2021/03/14 01:10:11;;;;;;;3.30;2.77;;;;;;;;;;2096672;28;20175;-65
2021/03/14 01:11:11;;;;;;;5.73;3.87;;;;;;;;;;2090404;28;20446;-65
2021/03/14 01:12:36;;;;;;;8.93;4.13;;;;;;;;;;2092527;28;20194;-64
2021/03/14 01:13:43;;;;;;;6.23;3.80;;;;;;;;;;2093725;28;20163;-65
2021/03/14 01:14:44;;;;;;;5.10;2.97;;;;;;;;;;2091233;28;20261;-62
2021/03/14 01:15:54;;;;;;;10.73;3.93;;;;;;;;;;2083783;28;20656;-64
2021/03/14 01:16:54;;;;;;;6.43;4.07;;;;;;;;;;2089604;28;20167;-64
2021/03/14 01:17:56;;;;;;;7.77;3.90;;;;;;;;;;2082176;28;20262;-65
2021/03/14 01:18:56;;;;;;;7.33;3.90;;;;;;;;;;2105821;28;20638;-64
2021/03/14 01:19:56;;;;;;;5.20;3.37;;;;;;;;;;2113374;28;20192;-65
2021/03/14 01:20:56;;;;;;;10.50;4.30;;;;;;;;;;2115411;28;20173;-65
2021/03/14 01:21:57;;;;;;;4.57;3.37;;;;;;;;;;2104607;28;20626;-65
2021/03/14 01:22:57;;;;;;;7.57;3.53;;;;;;;;;;2103335;28;20201;-65
2021/03/14 01:23:58;;;;;;;8.07;4.07;;;;;;;;;;2109669;28;20170;-66
2021/03/14 01:24:58;;;;;;;9.23;3.60;;;;;;;;;;2108004;28;20715;-66
2021/03/14 01:25:58;;;;;;;4.97;3.47;;;;;;;;;;2093238;28;20257;-65
2021/03/14 01:26:58;;;;;;;7.50;3.97;;;;;;;;;;2097764;28;20194;-65
2021/03/14 01:27:59;;;;;;;8.40;4.47;;;;;;;;;;2102308;28;20205;-65
2021/03/14 01:28:59;;;;;;;6.40;3.43;;;;;;;;;;2115560;28;20172;-65
2021/03/14 01:29:59;;;;;;;6.83;3.57;;;;;;;;;;2101965;28;20784;-65
2021/03/14 01:31:00;;;;;;;16.23;4.50;;;;;;;;;;2114470;28;20539;-64
2021/03/14 01:32:01;;;;;;;6.00;3.40;;;;;;;;;;2101849;28;20265;-65
2021/03/14 01:33:01;;;;;;;7.20;3.17;;;;;;;;;;2109358;28;20252;-65
2021/03/14 01:34:01;;;;;;;8.93;4.23;;;;;;;;;;2099931;28;20179;-66
2021/03/14 01:35:01;;;;;;;7.20;4.10;;;;;;;;;;2097674;28;20178;-65
2021/03/14 01:36:02;;;;;;;12.23;3.90;;;;;;;;;;2105396;28;20174;-66
2021/03/14 01:37:02;;;;;;;11.13;4.20;;;;;;;;;;2115118;28;20631;-66
2021/03/14 01:38:02;;;;;;;8.37;3.70;;;;;;;;;;2096726;28;20222;-64
2021/03/14 01:39:03;;;;;;;12.23;5.43;;;;;;;;;;2081084;28;20188;-67
2021/03/14 01:40:04;;;;;;;8.53;3.70;;;;;;;;;;2080957;28;20227;-65
2021/03/14 01:41:04;;;;;;;8.67;4.70;;;;;;;;;;2089472;28;20233;-65
2021/03/14 01:42:04;;;;;;;11.10;4.20;;;;;;;;;;2098350;28;20175;-65
2021/03/14 01:43:05;;;;;;;11.47;3.57;;;;;;;;;;2104518;28;20174;-65
2021/03/14 01:44:06;;;;;;;8.20;3.60;;;;;;;;;;2098173;28;20179;-65
2021/03/14 01:45:07;;;;;;;9.80;3.87;;;;;;;;;;2098229;28;20266;-64
2021/03/14 01:46:08;;;;;;;8.53;3.47;;;;;;;;;;2105711;28;20532;-64
2021/03/14 01:47:10;;;;;;;10.33;3.90;;;;;;;;;;2101756;28;20201;-65
2021/03/14 01:48:13;;;;;;;7.70;3.47;;;;;;;;;;2113620;28;20224;-65
2021/03/14 01:49:14;;;;;;;6.00;3.67;;;;;;;;;;2108412;28;20166;-66
2021/03/14 01:50:16;;;;;;;6.07;3.10;;;;;;;;;;2112883;28;20158;-66
2021/03/14 01:51:17;;;;;;;10.53;4.33;;;;;;;;;;2106223;28;20175;-64
2021/03/14 01:52:17;;;;;;;5.27;2.70;;;;;;;;;;2111736;28;20205;-66
2021/03/14 01:53:18;;;;;;;9.77;3.33;;;;;;;;;;2108508;28;20239;-66
2021/03/14 01:54:18;;;;;;;12.80;4.30;;;;;;;;;;2112437;28;20182;-66
2021/03/14 01:55:20;;;;;;;7.53;3.90;;;;;;;;;;2106118;28;20183;-66
2021/03/14 01:56:20;;;;;;;9.67;3.80;;;;;;;;;;2112055;28;20210;-66
2021/03/14 01:57:20;;;;;;;13.47;3.77;;;;;;;;;;2109343;28;20232;-66
2021/03/14 01:58:21;;;;;;;9.17;3.23;;;;;;;;;;2112084;28;20182;-66
2021/03/14 01:59:22;;;;;;;11.17;4.13;;;;;;;;;;2109141;28;20177;-66
2021/03/14 02:00:23;;;;;;;16.13;4.23;;;;;;;;;;2111458;28;20181;-66
2021/03/14 02:01:24;;;;;;;10.37;3.97;;;;;;;;;;2105671;28;20637;-66
2021/03/14 02:02:24;;;;;;;7.67;3.73;;;;;;;;;;2110908;28;20174;-66
2021/03/14 02:03:24;;;;;;;9.87;4.53;;;;;;;;;;2109819;28;20194;-66
2021/03/14 02:04:24;;;;;;;6.07;3.53;;;;;;;;;;2110394;28;20215;-66
2021/03/14 02:05:25;;;;;;;6.40;4.10;;;;;;;;;;2105521;28;20539;-66
2021/03/14 02:06:26;;;;;;;5.10;3.80;;;;;;;;;;2108981;28;20170;-65
2021/03/14 02:07:26;;;;;;;6.20;3.00;;;;;;;;;;2106323;28;20177;-66
2021/03/14 02:08:26;;;;;;;16.40;4.10;;;;;;;;;;2109787;28;20178;-66
2021/03/14 02:09:26;;;;;;;5.27;3.37;;;;;;;;;;2104494;28;20185;-66
2021/03/14 02:10:28;;;;;;;12.67;4.07;;;;;;;;;;2102123;28;20181;-66
2021/03/14 02:11:30;;;;;;;10.80;3.80;;;;;;;;;;2102642;28;20313;-65
2021/03/14 02:12:35;;;;;;;11.60;5.10;;;;;;;;;;2107330;28;20634;-66
2021/03/14 02:13:47;;;;;;;9.80;3.93;;;;;;;;;;2106522;28;20212;-65
2021/03/14 02:14:50;;;;;;;7.60;3.77;;;;;;;;;;2113597;28;20178;-66
2021/03/14 02:15:55;;;;;;;8.70;4.03;;;;;;;;;;2106570;28;20252;-66
2021/03/14 02:16:57;;;;;;;6.43;3.97;;;;;;;;;;2110730;28;20174;-66
2021/03/14 02:17:58;;;;;;;8.17;3.70;;;;;;;;;;2107055;28;20201;-66
2021/03/14 02:19:00;;;;;;;9.87;4.03;;;;;;;;;;2097745;28;20230;-66
2021/03/14 02:20:26;;;;;;;6.93;3.43;;;;;;;;;;2105897;28;20181;-66
2021/03/14 02:21:34;;;;;;;10.63;4.30;;;;;;;;;;2103594;28;20185;-65
2021/03/14 02:22:35;;;;;;;6.93;3.53;;;;;;;;;;2110069;28;20193;-64
2021/03/14 02:23:45;;;;;;;11.57;4.53;;;;;;;;;;2109303;28;20244;-65
2021/03/14 02:24:47;;;;;;;11.53;3.67;;;;;;;;;;2108119;28;20188;-63
2021/03/14 02:25:49;;;;;;;3.93;2.80;;;;;;;;;;2111624;28;20173;-64
2021/03/14 02:26:52;;;;;;;7.13;3.97;;;;;;;;;;2106879;28;20189;-66
2021/03/14 02:27:53;;;;;;;6.87;3.93;;;;;;;;;;2110686;28;20193;-66
2021/03/14 02:28:54;;;;;;;4.77;3.40;;;;;;;;;;2098806;28;20269;-66
2021/03/14 02:29:55;;;;;;;8.23;3.70;;;;;;;;;;2113969;28;20178;-66
2021/03/14 02:30:56;;;;;;;7.87;4.40;;;;;;;;;;2106222;28;20261;-66
2021/03/14 02:31:57;;;;;;;11.70;4.07;;;;;;;;;;2096924;28;20182;-66
2021/03/14 02:32:57;;;;;;;9.20;4.03;;;;;;;;;;2097829;28;20252;-66
2021/03/14 02:34:00;;;;;;;8.20;3.50;;;;;;;;;;2112885;28;20184;-66
2021/03/14 02:35:01;;;;;;;6.73;3.67;;;;;;;;;;2089661;28;20180;-66
2021/03/14 02:36:02;;;;;;;8.87;3.47;;;;;;;;;;2089343;28;20178;-66
2021/03/14 02:37:03;;;;;;;8.17;4.07;;;;;;;;;;2097926;28;20167;-66
2021/03/14 02:38:04;;;;;;;11.37;4.23;;;;;;;;;;2106004;28;20194;-66
2021/03/14 02:39:06;;;;;;;8.83;4.30;;;;;;;;;;2114189;28;20170;-66
2021/03/14 02:40:07;;;;;;;7.90;3.80;;;;;;;;;;2103787;28;20551;-65
2021/03/14 02:41:08;;;;;;;9.90;3.37;;;;;;;;;;2114386;28;20165;-65
2021/03/14 02:42:10;;;;;;;9.17;4.87;;;;;;;;;;2105822;28;20595;-65
2021/03/14 02:43:10;;;;;;;8.57;4.10;;;;;;;;;;2104257;28;20227;-65
2021/03/14 02:44:12;;;;;;;8.40;4.13;;;;;;;;;;2096697;28;20248;-63
2021/03/14 02:45:13;;;;;;;10.50;4.37;;;;;;;;;;2108494;28;20204;-66
2021/03/14 02:46:13;;;;;;;9.63;3.43;;;;;;;;;;2111172;28;20178;-66
2021/03/14 02:47:14;;;;;;;5.87;3.40;;;;;;;;;;2112067;28;20263;-66
2021/03/14 02:48:14;;;;;;;8.33;3.50;;;;;;;;;;2102827;28;20775;-66
2021/03/14 02:49:17;;;;;;;8.17;4.20;;;;;;;;;;2099496;28;20200;-66
2021/03/14 02:50:17;;;;;;;13.30;4.80;;;;;;;;;;2109327;28;20181;-66
2021/03/14 02:51:18;;;;;;;7.73;3.47;;;;;;;;;;2108356;28;20186;-65
2021/03/14 02:52:19;;;;;;;11.43;4.10;;;;;;;;;;2094786;28;20179;-64
2021/03/14 02:53:20;;;;;;;8.10;4.17;;;;;;;;;;2094770;28;20167;-63
2021/03/14 02:54:20;;;;;;;10.80;4.33;;;;;;;;;;2103812;28;20170;-66
2021/03/14 02:55:22;;;;;;;7.63;3.63;;;;;;;;;;2110989;28;20249;-66
2021/03/14 02:56:22;;;;;;;12.33;4.03;;;;;;;;;;2108991;28;20564;-66
2021/03/14 02:57:23;;;;;;;7.70;4.47;;;;;;;;;;2111265;28;20170;-65
2021/03/14 02:58:25;;;;;;;5.73;3.97;;;;;;;;;;2092758;28;20229;-65
2021/03/14 02:59:25;;;;;;;9.43;3.93;;;;;;;;;;2097410;28;20259;-65
2021/03/14 03:00:27;;;;;;;10.53;4.30;;;;;;;;;;2100194;28;20178;-66
2021/03/14 03:01:27;;;;;;;8.63;4.03;;;;;;;;;;2105285;28;20580;-65
2021/03/14 03:02:28;;;;;;;8.73;4.23;;;;;;;;;;2109582;28;20185;-65
2021/03/14 03:03:28;;;;;;;10.50;4.53;;;;;;;;;;2108715;28;20519;-65
2021/03/14 03:04:29;;;;;;;7.77;3.53;;;;;;;;;;2106468;28;20174;-65
2021/03/14 03:05:30;;;;;;;7.10;3.83;;;;;;;;;;2109868;28;20174;-66
2021/03/14 03:06:31;;;;;;;8.37;3.87;;;;;;;;;;2107944;28;20268;-66
2021/03/14 03:07:32;;;;;;;6.43;3.90;;;;;;;;;;2097224;28;20738;-66
2021/03/14 03:08:33;;;;;;;8.20;3.57;;;;;;;;;;2094959;28;20175;-65
2021/03/14 03:09:33;;;;;;;9.03;4.33;;;;;;;;;;2111171;28;20188;-65
2021/03/14 03:10:44;;;;;;;10.27;3.67;;;;;;;;;;2104850;28;20667;-64
2021/03/14 03:11:45;;;;;;;11.30;4.23;;;;;;;;;;2110341;28;20250;-65
2021/03/14 03:12:47;;;;;;;10.07;4.43;;;;;;;;;;2098282;28;20183;-65
2021/03/14 03:13:48;;;;;;;12.67;4.30;;;;;;;;;;2090120;28;20725;-65
2021/03/14 03:14:49;;;;;;;11.80;4.40;;;;;;;;;;2098132;28;20175;-65
2021/03/14 03:15:49;;;;;;;11.27;4.80;;;;;;;;;;2105918;28;20243;-65
2021/03/14 03:16:50;;;;;;;14.50;5.07;;;;;;;;;;2099412;28;20183;-65
2021/03/14 03:17:51;;;;;;;8.17;4.23;;;;;;;;;;2088775;28;20681;-65
2021/03/14 03:18:52;;;;;;;10.70;4.17;;;;;;;;;;2095591;28;20269;-65
2021/03/14 03:19:53;;;;;;;8.43;3.97;;;;;;;;;;2113493;28;20265;-65
2021/03/14 03:20:54;;;;;;;7.47;4.23;;;;;;;;;;2106867;28;20227;-65
2021/03/14 03:21:54;;;;;;;10.83;4.07;;;;;;;;;;2106008;28;20174;-64
2021/03/14 03:22:55;;;;;;;15.40;4.33;;;;;;;;;;2105574;28;20193;-64
2021/03/14 03:23:55;;;;;;;6.43;3.67;;;;;;;;;;2096659;28;20187;-65
2021/03/14 03:24:56;;;;;;;10.57;4.73;;;;;;;;;;2097374;28;20229;-65
2021/03/14 03:25:59;;;;;;;8.43;4.43;;;;;;;;;;2106179;28;20223;-64
2021/03/14 03:26:59;;;;;;;8.23;3.93;;;;;;;;;;2106342;28;20269;-65
2021/03/14 03:27:59;;;;;;;9.30;4.47;;;;;;;;;;2106208;28;20201;-65
2021/03/14 03:29:00;;;;;;;10.97;4.57;;;;;;;;;;2106121;28;20177;-65
2021/03/14 03:30:00;;;;;;;9.33;4.43;;;;;;;;;;2106260;28;20261;-64
2021/03/14 03:31:01;;;;;;;10.00;3.97;;;;;;;;;;2106479;28;20167;-65
2021/03/14 03:32:02;;;;;;;7.80;4.27;;;;;;;;;;2105785;28;20192;-65
2021/03/14 03:33:02;;;;;;;7.37;4.00;;;;;;;;;;2097417;28;20171;-65
2021/03/14 03:34:03;;;;;;;7.27;3.60;;;;;;;;;;2097302;28;20167;-65
2021/03/14 03:35:05;;;;;;;8.47;4.27;;;;;;;;;;2106204;28;20536;-63
2021/03/14 03:36:06;;;;;;;13.50;4.53;;;;;;;;;;2097784;28;20215;-64
2021/03/14 03:37:06;;;;;;;12.27;4.90;;;;;;;;;;2097356;28;20167;-65
2021/03/14 03:38:06;;;;;;;10.70;5.07;;;;;;;;;;2106300;28;20717;-65
2021/03/14 03:39:08;;;;;;;9.97;3.97;;;;;;;;;;2106364;28;20186;-65
2021/03/14 03:40:10;;;;;;;7.43;4.40;;;;;;;;;;2097196;28;20218;-65
2021/03/14 03:41:12;;;;;;;11.03;4.60;;;;;;;;;;2097247;28;20175;-65
2021/03/14 03:42:14;;;;;;;7.00;4.33;;;;;;;;;;2105942;28;20646;-65
2021/03/14 03:43:19;;;;;;;11.43;4.67;;;;;;;;;;2106265;28;20215;-65
2021/03/14 03:44:23;;;;;;;11.90;4.53;;;;;;;;;;2097183;28;20187;-65
2021/03/14 03:45:25;;;;;;;10.47;5.27;;;;;;;;;;2095441;28;20174;-65
2021/03/14 03:46:25;;;;;;;9.20;4.83;;;;;;;;;;2097476;28;20166;-65
2021/03/14 03:47:26;;;;;;;9.70;5.17;;;;;;;;;;2096848;28;20932;-65
2021/03/14 03:48:31;;;;;;;12.43;4.53;;;;;;;;;;2095618;28;20568;-64
2021/03/14 03:49:32;;;;;;;11.27;4.87;;;;;;;;;;2102940;28;20201;-65
2021/03/14 03:50:35;;;;;;;9.03;4.70;;;;;;;;;;2110281;28;20214;-65
2021/03/14 03:51:35;;;;;;;13.53;4.73;;;;;;;;;;2112064;28;20209;-62
2021/03/14 03:52:36;;;;;;;4.83;3.90;;;;;;;;;;2108979;28;20690;-65
2021/03/14 03:53:37;;;;;;;11.83;4.70;;;;;;;;;;2108705;28;20181;-64
2021/03/14 03:54:38;;;;;;;11.20;4.50;;;;;;;;;;2108351;28;20174;-65
2021/03/14 03:55:39;;;;;;;8.30;4.87;;;;;;;;;;2090972;28;20209;-65
2021/03/14 03:56:39;;;;;;;9.60;4.53;;;;;;;;;;2088892;28;20191;-65
2021/03/14 03:57:40;;;;;;;8.13;4.30;;;;;;;;;;2107680;28;20189;-64
2021/03/14 03:58:40;;;;;;;11.33;3.77;;;;;;;;;;2106015;28;20665;-65
2021/03/14 03:59:41;;;;;;;5.03;3.63;;;;;;;;;;2090604;28;20278;-65
2021/03/14 04:00:42;;;;;;;9.37;4.70;;;;;;;;;;2099337;28;20528;-65
2021/03/14 04:01:42;;;;;;;9.07;4.67;;;;;;;;;;2104937;28;20177;-65
2021/03/14 04:02:43;;;;;;;7.60;4.83;;;;;;;;;;2111711;28;20807;-66
2021/03/14 04:03:44;;;;;;;10.67;4.57;;;;;;;;;;2105693;28;20208;-65
2021/03/14 04:04:45;;;;;;;6.77;4.10;;;;;;;;;;2110703;28;20177;-66
2021/03/14 04:05:46;;;;;;;17.27;5.07;;;;;;;;;;2107149;28;20213;-65
2021/03/14 04:06:48;;;;;;;10.27;3.90;;;;;;;;;;2097253;28;20178;-66
2021/03/14 04:07:49;;;;;;;6.30;3.70;;;;;;;;;;2092654;28;20203;-66
2021/03/14 04:08:49;;;;;;;15.77;4.43;;;;;;;;;;2113300;28;20261;-66
2021/03/14 04:09:50;;;;;;;9.17;4.67;;;;;;;;;;2106403;28;20182;-65
2021/03/14 04:10:51;;;;;;;8.67;4.50;;;;;;;;;;2113250;28;20165;-66
2021/03/14 04:11:53;;;;;;;12.10;5.03;;;;;;;;;;2105865;28;20244;-65
2021/03/14 04:12:53;;;;;;;9.93;4.90;;;;;;;;;;2089409;28;20680;-65
2021/03/14 04:13:54;;;;;;;15.87;4.20;;;;;;;;;;2087698;28;20175;-63
2021/03/14 04:14:54;;;;;;;12.40;5.30;;;;;;;;;;2097211;28;20178;-66
2021/03/14 04:15:55;;;;;;;8.83;4.97;;;;;;;;;;2102291;28;20198;-66
2021/03/14 04:16:55;;;;;;;11.30;5.73;;;;;;;;;;2089545;28;20171;-65
2021/03/14 04:17:56;;;;;;;9.50;5.73;;;;;;;;;;2094056;28;20207;-66
2021/03/14 04:18:57;;;;;;;11.07;4.83;;;;;;;;;;2121276;22;21179;-58
2021/03/14 04:19:59;;;;;;;7.77;5.03;;;;;;;;;;2089974;28;20187;-61
2021/03/14 04:21:01;;;;;;;11.77;5.13;;;;;;;;;;2091595;28;20163;-57
2021/03/14 04:22:02;;;;;;;13.80;5.13;;;;;;;;;;2100375;28;20170;-61
2021/03/14 04:23:05;;;;;;;13.20;5.63;;;;;;;;;;2096230;28;20226;-59
2021/03/14 04:24:07;;;;;;;10.97;4.73;;;;;;;;;;2090596;28;20178;-62
2021/03/14 04:25:07;;;;;;;14.63;5.83;;;;;;;;;;2106111;28;20178;-60
2021/03/14 04:26:08;;;;;;;12.70;5.63;;;;;;;;;;2097321;28;20165;-60
2021/03/14 04:27:08;;;;;;;10.70;5.33;;;;;;;;;;2088445;28;20206;-61
2021/03/14 04:28:10;;;;;;;6.03;4.50;;;;;;;;;;2082163;28;20179;-61
2021/03/14 04:29:10;;;;;;;11.13;4.93;;;;;;;;;;2088816;28;20187;-60
2021/03/14 04:30:12;;;;;;;10.93;5.17;;;;;;;;;;2087234;28;20251;-62
2021/03/14 04:31:13;;;;;;;4.87;3.57;;;;;;;;;;2088437;28;20223;-62
2021/03/14 04:32:14;;;;;;;10.77;5.33;;;;;;;;;;2097365;28;20220;-62
2021/03/14 04:33:16;;;;;;;10.50;4.80;;;;;;;;;;2097025;28;20834;-62
2021/03/14 04:34:18;;;;;;;11.07;5.57;;;;;;;;;;2097872;28;20170;-62
2021/03/14 04:35:18;;;;;;;9.30;5.03;;;;;;;;;;2097981;28;20220;-61
2021/03/14 04:36:20;;;;;;;11.63;4.93;;;;;;;;;;2090912;28;20189;-60
2021/03/14 04:37:20;;;;;;;6.07;4.23;;;;;;;;;;2097539;28;20245;-62
2021/03/14 04:38:21;;;;;;;5.53;3.43;;;;;;;;;;2094055;28;20202;-61
2021/03/14 04:39:21;;;;;;;5.63;3.63;;;;;;;;;;2097721;28;20182;-60
2021/03/14 04:40:22;;;;;;;11.37;5.03;;;;;;;;;;2097821;28;20160;-60
2021/03/14 04:41:22;;;;;;;7.33;4.30;;;;;;;;;;2097393;28;20155;-61
2021/03/14 04:42:23;;;;;;;5.87;4.27;;;;;;;;;;2097665;28;20175;-61
2021/03/14 04:43:24;;;;;;;7.63;4.77;;;;;;;;;;2098077;28;20221;-61
2021/03/14 04:44:26;;;;;;;7.30;4.70;;;;;;;;;;2097576;28;20264;-61
2021/03/14 04:45:26;;;;;;;6.53;4.40;;;;;;;;;;2097558;28;20171;-61
2021/03/14 04:46:26;;;;;;;11.27;4.43;;;;;;;;;;2097785;28;20515;-60
2021/03/14 04:47:26;;;;;;;11.10;5.10;;;;;;;;;;2099150;28;20263;-61
2021/03/14 04:48:27;;;;;;;11.27;4.63;;;;;;;;;;2089841;28;20164;-61
2021/03/14 04:49:27;;;;;;;9.53;4.77;;;;;;;;;;2090373;28;20163;-61
2021/03/14 04:50:28;;;;;;;8.83;4.50;;;;;;;;;;2099333;28;20171;-60
2021/03/14 04:51:29;;;;;;;10.47;4.60;;;;;;;;;;2098723;28;20170;-60
2021/03/14 04:52:30;;;;;;;8.37;5.10;;;;;;;;;;2099321;28;20159;-60
2021/03/14 04:53:31;;;;;;;11.50;4.33;;;;;;;;;;2102745;28;20614;-60
2021/03/14 04:54:32;;;;;;;9.20;4.47;;;;;;;;;;2107343;28;20170;-60
2021/03/14 04:55:33;;;;;;;9.73;4.40;;;;;;;;;;2107461;28;20178;-59
2021/03/14 04:56:34;;;;;;;7.87;4.53;;;;;;;;;;2107497;28;20173;-60
2021/03/14 04:57:35;;;;;;;11.23;5.03;;;;;;;;;;2107513;28;20166;-59
2021/03/14 04:58:37;;;;;;;10.90;5.23;;;;;;;;;;2107325;28;20174;-62
2021/03/14 04:59:37;;;;;;;6.53;4.83;;;;;;;;;;2107495;28;20257;-60
2021/03/14 05:00:38;;;;;;;10.00;5.63;;;;;;;;;;2101769;28;20171;-61
2021/03/14 05:01:40;;;;;;;8.63;5.30;;;;;;;;;;2098503;28;20175;-61
2021/03/14 05:02:44;;;;;;;13.00;5.40;;;;;;;;;;2097503;28;20224;-61
2021/03/14 05:03:46;;;;;;;17.70;5.93;;;;;;;;;;2104852;28;20265;-60
2021/03/14 05:04:48;;;;;;;10.20;5.40;;;;;;;;;;2091137;28;20232;-60
2021/03/14 05:05:50;;;;;;;7.50;5.40;;;;;;;;;;2088465;28;20187;-59
2021/03/14 05:06:51;;;;;;;7.50;5.40;;;;;;;;;;2090283;28;20175;-61
2021/03/14 05:07:52;;;;;;;11.67;5.77;;;;;;;;;;2105754;28;20212;-58
2021/03/14 05:08:53;;;;;;;7.60;5.57;;;;;;;;;;2098951;28;20649;-59
2021/03/14 05:09:53;;;;;;;8.77;5.30;;;;;;;;;;2106429;28;20235;-59
2021/03/14 05:10:53;;;;;;;8.73;4.40;;;;;;;;;;2098866;28;20170;-60
2021/03/14 05:11:54;;;;;;;9.73;5.20;;;;;;;;;;2095203;28;20171;-61
2021/03/14 05:12:55;;;;;;;9.00;6.30;;;;;;;;;;2091430;28;20542;-62
2021/03/14 05:13:56;;;;;;;10.47;5.80;;;;;;;;;;2103760;28;20178;-60
2021/03/14 05:14:56;;;;;;;10.33;5.77;;;;;;;;;;2098483;28;20205;-61
2021/03/14 05:15:57;;;;;;;10.67;5.80;;;;;;;;;;2106023;28;20930;-62
2021/03/14 05:16:57;;;;;;;8.93;5.03;;;;;;;;;;2106496;28;20177;-60
2021/03/14 05:17:57;;;;;;;16.97;5.47;;;;;;;;;;2096137;28;20525;-59
2021/03/14 05:18:58;;;;;;;8.93;5.10;;;;;;;;;;2089112;28;20231;-61
2021/03/14 05:19:58;;;;;;;7.00;4.43;;;;;;;;;;2082176;28;20173;-61
2021/03/14 05:20:59;;;;;;;8.90;4.03;;;;;;;;;;2107271;28;20206;-61
2021/03/14 05:22:00;;;;;;;9.50;5.30;;;;;;;;;;2095941;28;20170;-60
2021/03/14 05:23:00;;;;;;;11.60;5.70;;;;;;;;;;2106641;28;20184;-61
2021/03/14 05:24:03;;;;;;;14.13;5.03;;;;;;;;;;2097925;28;20164;-61
2021/03/14 05:25:04;;;;;;;7.20;6.50;;;;;;;;;;2106261;28;20162;-60
2021/03/14 05:26:08;;;;;;;15.40;5.87;;;;;;;;;;2095284;28;20183;-59
2021/03/14 05:27:08;;;;;;;17.03;6.70;;;;;;;;;;2103802;28;20158;-61
2021/03/14 05:28:12;;;;;;;11.77;6.10;;;;;;;;;;2088456;28;20179;-60
2021/03/14 05:29:12;;;;;;;13.13;6.50;;;;;;;;;;2096363;28;20285;-60
2021/03/14 05:30:13;;;;;;;15.60;6.63;;;;;;;;;;2091346;28;20164;-61
2021/03/14 05:31:22;;;;;;;12.03;6.10;;;;;;;;;;2105202;28;20641;-60
2021/03/14 05:32:22;;;;;;;12.37;6.77;;;;;;;;;;2100815;28;20162;-63
2021/03/14 05:33:23;;;;;;;11.63;6.87;;;;;;;;;;2094674;28;20176;-60
2021/03/14 05:34:23;;;;;;;15.17;6.23;;;;;;;;;;2097554;28;20159;-61
2021/03/14 05:35:25;;;;;;;15.90;5.90;;;;;;;;;;2107932;28;20166;-60
2021/03/14 05:36:25;;;;;;;17.17;7.07;;;;;;;;;;2106626;28;20181;-63
2021/03/14 05:37:26;;;;;;;11.03;5.70;;;;;;;;;;2107419;28;20178;-60
2021/03/14 05:38:26;;;;;;;15.40;7.07;;;;;;;;;;2104060;28;20350;-62
2021/03/14 05:39:26;;;;;;;9.33;6.37;;;;;;;;;;2105686;28;20205;-60
2021/03/14 05:40:27;;;;;;;9.20;6.40;;;;;;;;;;2104134;28;20182;-60
2021/03/14 05:41:28;;;;;;;12.77;6.33;;;;;;;;;;2101178;28;20194;-60
2021/03/14 05:42:28;;;;;;;14.97;6.03;;;;;;;;;;2099391;28;20194;-61
2021/03/14 05:43:29;;;;;;;10.97;4.57;;;;;;;;;;2101081;28;20180;-61
2021/03/14 05:44:29;;;;;;;11.00;6.03;;;;;;;;;;2100872;28;20171;-62
2021/03/14 05:45:29;;;;;;;11.17;6.60;;;;;;;;;;2103329;28;20179;-62
2021/03/14 05:46:30;;;;;;;12.10;6.50;;;;;;;;;;2103869;28;20178;-62
2021/03/14 05:47:31;;;;;;;10.43;5.80;;;;;;;;;;2101709;28;20198;-62
2021/03/14 05:48:31;;;;;;;13.90;5.67;;;;;;;;;;2099431;28;20216;-62
2021/03/14 05:49:31;;;;;;;15.33;6.63;;;;;;;;;;2103096;28;20197;-60
2021/03/14 05:50:31;;;;;;;15.23;6.83;;;;;;;;;;2102547;28;20167;-63
2021/03/14 05:51:40;;;;;;;10.20;5.07;;;;;;;;;;2101087;28;20674;-62
2021/03/14 05:52:41;;;;;;;12.80;5.67;;;;;;;;;;2101362;28;20521;-59
2021/03/14 05:53:42;;;;;;;17.63;5.20;;;;;;;;;;2103887;28;20198;-60
2021/03/14 05:54:42;;;;;;;8.10;5.57;;;;;;;;;;2099937;28;20175;-62
2021/03/14 05:55:43;;;;;;;11.73;6.27;;;;;;;;;;2103821;28;20170;-62
2021/03/14 05:56:47;;;;;;;8.73;5.20;;;;;;;;;;2091280;28;20186;-60
2021/03/14 05:57:48;;;;;;;18.47;6.43;;;;;;;;;;2096192;28;20261;-60
2021/03/14 05:58:49;;;;;;;17.03;4.67;;;;;;;;;;2099908;28;20281;-60
2021/03/14 05:59:51;;;;;;;16.83;4.63;;;;;;;;;;2104636;28;20213;-60
2021/03/14 06:00:51;;;;;;;7.73;4.43;;;;;;;;;;2095169;28;20168;-60
2021/03/14 06:01:52;;;;;;;17.00;5.87;;;;;;;;;;2104452;28;20183;-62
2021/03/14 06:03:00;;;;;;;8.27;3.70;;;;;;;;;;2095661;28;20759;-62
2021/03/14 06:04:01;;;;;;;6.97;3.97;;;;;;;;;;2090983;28;20210;-61
2021/03/14 06:05:01;;;;;;;5.97;3.77;;;;;;;;;;2093716;28;20178;-62